createdAt,value
2022-11-28T00:00:30.426Z,3.68
2022-11-28T00:01:38.506Z,3.70
2022-11-28T00:02:42.004Z,3.71
2022-11-28T00:03:45.018Z,3.73
2022-11-28T00:04:52.240Z,3.78
2022-11-28T00:05:55.468Z,3.76
2022-11-28T00:06:59.349Z,3.74
2022-11-28T00:08:02.496Z,3.75
2022-11-28T00:09:09.631Z,3.74
2022-11-28T00:10:13.080Z,3.78
2022-11-28T00:11:16.822Z,3.78
2022-11-28T00:12:19.828Z,3.76
2022-11-28T00:13:22.784Z,3.74
2022-11-28T00:14:25.777Z,3.75
2022-11-28T00:15:28.619Z,3.76
2022-11-28T00:16:32.320Z,3.73
2022-11-28T00:17:35.109Z,3.71
2022-11-28T00:18:38.259Z,3.73
2022-11-28T00:19:41.109Z,3.74
2022-11-28T00:20:44.059Z,3.83
2022-11-28T00:21:46.867Z,3.79
2022-11-28T00:22:50.023Z,3.75
2022-11-28T00:23:53.663Z,3.74
2022-11-28T00:24:56.617Z,3.74
2022-11-28T00:26:05.471Z,3.74
2022-11-28T00:27:11.591Z,3.75
2022-11-28T00:28:15.023Z,3.74
2022-11-28T00:29:18.223Z,3.73
2022-11-28T00:30:21.067Z,3.73
2022-11-28T00:31:27.109Z,3.71
2022-11-28T00:32:30.260Z,3.71
2022-11-28T00:33:34.168Z,3.71
2022-11-28T00:34:37.130Z,3.74
2022-11-28T00:35:40.023Z,3.74
2022-11-28T00:36:47.239Z,3.74
2022-11-28T00:37:50.361Z,3.75
2022-11-28T00:38:53.467Z,3.76
2022-11-28T00:39:56.656Z,3.77
2022-11-28T00:41:08.139Z,3.78
2022-11-28T00:42:11.017Z,3.78
2022-11-28T00:43:13.820Z,3.76
2022-11-28T00:44:16.685Z,3.79
2022-11-28T00:45:19.541Z,3.79
2022-11-28T00:46:23.361Z,3.78
2022-11-28T00:47:29.621Z,3.78
2022-11-28T00:48:35.079Z,3.77
2022-11-28T00:49:37.948Z,3.81
2022-11-28T00:50:40.899Z,3.85
2022-11-28T00:51:44.058Z,3.80
2022-11-28T00:52:46.821Z,3.76
2022-11-28T00:53:53.585Z,3.77
2022-11-28T00:54:56.459Z,3.77
2022-11-28T00:55:59.337Z,3.79
2022-11-28T00:57:02.459Z,3.83
2022-11-28T00:58:05.937Z,3.83
2022-11-28T00:59:09.350Z,3.85
2022-11-28T01:00:12.897Z,3.84
2022-11-28T01:01:20.875Z,3.83
2022-11-28T01:02:23.908Z,3.86
2022-11-28T01:03:27.027Z,3.83
2022-11-28T01:04:30.137Z,3.80
2022-11-28T01:05:33.097Z,3.81
2022-11-28T01:06:42.304Z,3.80
2022-11-28T01:07:45.271Z,3.85
2022-11-28T01:08:48.372Z,3.82
2022-11-28T01:09:51.338Z,3.80
2022-11-28T01:10:54.514Z,3.76
2022-11-28T01:11:57.381Z,3.79
2022-11-28T01:13:00.340Z,3.81
2022-11-28T01:14:03.362Z,3.78
2022-11-28T01:15:09.082Z,3.78
2022-11-28T01:16:12.230Z,3.78
2022-11-28T01:17:15.090Z,3.78
2022-11-28T01:18:18.390Z,3.84
2022-11-28T01:19:21.674Z,3.81
2022-11-28T01:20:24.740Z,3.80
2022-11-28T01:21:27.866Z,3.80
2022-11-28T01:22:30.763Z,3.80
2022-11-28T01:23:34.245Z,3.83
2022-11-28T01:24:37.161Z,3.82
2022-11-28T01:25:40.173Z,3.80
2022-11-28T01:26:45.182Z,3.82
2022-11-28T01:27:48.596Z,3.81
2022-11-28T01:28:52.594Z,3.81
2022-11-28T01:29:55.330Z,3.77
2022-11-28T01:31:07.288Z,3.75
2022-11-28T01:32:13.780Z,3.75
2022-11-28T01:33:16.587Z,3.72
2022-11-28T01:34:25.588Z,3.71
2022-11-28T01:35:28.467Z,3.77
2022-11-28T01:36:31.853Z,3.82
2022-11-28T01:37:34.828Z,3.89
2022-11-28T01:38:38.354Z,3.82
2022-11-28T01:39:42.737Z,3.76
2022-11-28T01:40:46.840Z,3.74
2022-11-28T01:41:55.656Z,3.73
2022-11-28T01:42:58.510Z,3.70
2022-11-28T01:44:16.419Z,3.75
2022-11-28T01:45:33.871Z,3.75
2022-11-28T01:46:37.590Z,3.74
2022-11-28T01:47:41.620Z,3.76
2022-11-28T01:48:45.341Z,3.75
2022-11-28T01:49:50.109Z,3.74
2022-11-28T01:50:57.144Z,3.76
2022-11-28T01:52:13.422Z,3.79
2022-11-28T01:53:17.698Z,3.80
2022-11-28T01:54:25.779Z,3.74
2022-11-28T01:55:33.897Z,3.71
2022-11-28T01:56:47.995Z,3.72
2022-11-28T01:57:56.305Z,3.73
2022-11-28T01:59:04.783Z,3.74
2022-11-28T02:00:15.070Z,3.74
2022-11-28T02:01:20.812Z,3.74
2022-11-28T02:02:32.618Z,3.73
2022-11-28T02:03:47.715Z,3.73
2022-11-28T02:04:51.201Z,3.75
2022-11-28T02:05:54.825Z,3.76
2022-11-28T02:06:58.009Z,3.75
2022-11-28T02:08:01.103Z,3.78
2022-11-28T02:09:06.771Z,3.78
2022-11-28T02:10:12.746Z,3.75
2022-11-28T02:11:37.352Z,3.73
2022-11-28T02:12:46.317Z,3.74
2022-11-28T02:14:21.842Z,3.75
2022-11-28T02:15:39.291Z,3.74
2022-11-28T02:17:08.033Z,3.74
2022-11-28T02:18:39.039Z,3.83
2022-11-28T02:20:08.105Z,3.79
2022-11-28T02:21:32.250Z,3.76
2022-11-28T02:22:58.772Z,3.75
2022-11-28T02:24:16.693Z,3.75
2022-11-28T02:25:50.747Z,3.82
2022-11-28T02:26:53.508Z,3.92
2022-11-28T02:28:45.417Z,3.90
2022-11-28T02:30:00.776Z,3.77
2022-11-28T02:31:16.406Z,3.75
2022-11-28T02:32:47.901Z,3.71
2022-11-28T02:33:57.340Z,3.67
2022-11-28T02:35:28.355Z,3.69
2022-11-28T02:36:37.296Z,3.74
2022-11-28T02:38:12.899Z,3.71
2022-11-28T02:39:46.146Z,3.68
2022-11-28T02:40:54.460Z,3.73
2022-11-28T02:42:01.750Z,3.72
2022-11-28T02:43:25.256Z,3.69
2022-11-28T02:44:44.207Z,3.72
2022-11-28T02:46:11.653Z,3.74
2022-11-28T02:47:30.459Z,3.69
2022-11-28T02:48:52.275Z,3.70
2022-11-28T02:50:05.025Z,3.74
2022-11-28T02:51:19.099Z,3.81
2022-11-28T02:52:28.105Z,3.75
2022-11-28T02:53:33.311Z,3.73
2022-11-28T02:54:38.585Z,3.65
2022-11-28T02:55:43.339Z,3.61
2022-11-28T02:56:53.505Z,3.63
2022-11-28T02:57:56.469Z,3.60
2022-11-28T02:59:00.278Z,3.62
2022-11-28T03:00:23.340Z,3.70
2022-11-28T03:01:34.366Z,3.60
2022-11-28T03:02:37.936Z,3.49
2022-11-28T03:03:55.738Z,3.46
2022-11-28T03:04:58.549Z,3.48
2022-11-28T03:06:27.906Z,3.47
2022-11-28T03:07:47.007Z,3.38
2022-11-28T03:09:01.816Z,3.35
2022-11-28T03:10:24.672Z,3.30
2022-11-28T03:11:27.966Z,3.31
2022-11-28T03:12:51.654Z,3.28
2022-11-28T03:14:03.531Z,3.28
2022-11-28T03:15:09.622Z,3.30
2022-11-28T03:16:29.535Z,3.27
2022-11-28T03:17:44.787Z,3.25
2022-11-28T03:19:20.157Z,3.25
2022-11-28T03:20:39.065Z,3.27
2022-11-28T03:21:56.685Z,3.26
2022-11-28T03:23:15.193Z,3.33
2022-11-28T03:24:28.263Z,3.31
2022-11-28T03:25:55.819Z,3.32
2022-11-28T03:27:26.022Z,3.29
2022-11-28T03:28:43.226Z,3.31
2022-11-28T03:29:52.837Z,3.30
2022-11-28T03:31:03.511Z,3.26
2022-11-28T03:32:30.098Z,3.29
2022-11-28T03:33:36.863Z,3.35
2022-11-28T03:34:46.476Z,3.33
2022-11-28T03:35:56.461Z,3.34
2022-11-28T03:37:08.776Z,3.34
2022-11-28T03:38:19.371Z,3.38
2022-11-28T03:39:34.146Z,3.37
2022-11-28T03:40:46.064Z,3.33
2022-11-28T03:41:55.630Z,3.35
2022-11-28T03:43:03.777Z,3.26
2022-11-28T03:44:11.852Z,3.36
2022-11-28T03:45:22.099Z,3.33
2022-11-28T03:46:31.626Z,3.25
2022-11-28T03:47:44.282Z,3.22
2022-11-28T03:48:59.430Z,3.21
2022-11-28T03:50:08.224Z,3.18
2022-11-28T03:51:37.700Z,3.25
2022-11-28T03:52:55.469Z,3.42
2022-11-28T03:54:17.671Z,3.31
2022-11-28T03:55:50.332Z,3.18
2022-11-28T03:57:20.829Z,3.20
2022-11-28T03:58:31.309Z,3.14
2022-11-28T03:59:36.747Z,3.11
2022-11-28T04:00:59.945Z,3.13
2022-11-28T04:02:37.698Z,3.09
2022-11-28T04:04:09.093Z,3.17
2022-11-28T04:05:30.300Z,3.22
2022-11-28T04:07:03.979Z,3.17
2022-11-28T04:08:21.864Z,3.23
2022-11-28T04:09:45.537Z,3.34
2022-11-28T04:10:57.419Z,3.27
2022-11-28T04:12:17.905Z,3.21
2022-11-28T04:13:32.419Z,3.17
2022-11-28T04:14:41.710Z,3.29
2022-11-28T04:15:44.659Z,3.23
2022-11-28T04:17:07.668Z,3.26
2022-11-28T04:18:32.267Z,3.24
2022-11-28T04:19:42.667Z,3.21
2022-11-28T04:21:04.621Z,3.15
2022-11-28T04:22:31.385Z,3.16
2022-11-28T04:23:37.027Z,3.17
2022-11-28T04:24:46.114Z,3.16
2022-11-28T04:26:01.780Z,3.21
2022-11-28T04:27:10.616Z,3.16
2022-11-28T04:28:21.401Z,3.14
2022-11-28T04:29:26.867Z,3.13
2022-11-28T04:30:29.905Z,3.14
2022-11-28T04:31:34.369Z,3.13
2022-11-28T04:32:42.698Z,3.16
2022-11-28T04:33:57.349Z,3.19
2022-11-28T04:35:07.261Z,3.18
2022-11-28T04:36:12.187Z,3.18
2022-11-28T04:37:17.096Z,3.21
2022-11-28T04:38:23.398Z,3.27
2022-11-28T04:39:28.471Z,3.37
2022-11-28T04:40:35.428Z,3.30
2022-11-28T04:41:43.186Z,3.27
2022-11-28T04:42:53.304Z,3.24
2022-11-28T04:44:22.553Z,3.27
2022-11-28T04:45:36.218Z,3.34
2022-11-28T04:46:51.343Z,3.38
2022-11-28T04:47:56.421Z,3.41
2022-11-28T04:49:01.622Z,3.34
2022-11-28T04:50:05.100Z,3.31
2022-11-28T04:51:19.652Z,3.30
2022-11-28T04:52:42.143Z,3.33
2022-11-28T04:54:13.932Z,3.31
2022-11-28T04:55:47.420Z,3.52
2022-11-28T04:57:04.313Z,3.53
2022-11-28T04:58:16.504Z,3.46
2022-11-28T04:59:21.057Z,3.58
2022-11-28T05:00:24.114Z,3.49
2022-11-28T05:01:31.617Z,3.51
2022-11-28T05:02:36.654Z,3.40
2022-11-28T05:03:42.732Z,3.38
2022-11-28T05:04:45.985Z,3.39
2022-11-28T05:05:51.465Z,3.52
2022-11-28T05:07:02.943Z,3.39
2022-11-28T05:08:05.941Z,3.33
2022-11-28T05:09:13.587Z,3.37
2022-11-28T05:10:18.336Z,3.37
2022-11-28T05:11:24.618Z,3.35
2022-11-28T05:12:27.494Z,3.31
2022-11-28T05:13:30.343Z,3.29
2022-11-28T05:14:36.642Z,3.29
2022-11-28T05:15:39.547Z,3.29
2022-11-28T05:16:42.379Z,3.33
2022-11-28T05:17:48.456Z,3.46
2022-11-28T05:18:51.535Z,3.40
2022-11-28T05:19:54.945Z,3.36
2022-11-28T05:20:59.623Z,3.47
2022-11-28T05:22:02.467Z,3.40
2022-11-28T05:23:05.564Z,3.33
2022-11-28T05:24:09.364Z,3.28
2022-11-28T05:25:12.367Z,3.33
2022-11-28T05:26:18.522Z,3.42
2022-11-28T05:27:21.379Z,3.31
2022-11-28T05:28:25.091Z,3.29
2022-11-28T05:29:27.838Z,3.32
2022-11-28T05:30:30.664Z,3.26
2022-11-28T05:31:33.992Z,3.23
2022-11-28T05:32:36.911Z,3.23
2022-11-28T05:33:40.095Z,3.26
2022-11-28T05:34:43.360Z,3.26
2022-11-28T05:35:46.486Z,3.25
2022-11-28T05:36:49.442Z,3.23
2022-11-28T05:37:52.396Z,3.20
2022-11-28T05:38:55.213Z,3.19
2022-11-28T05:39:58.282Z,3.21
2022-11-28T05:41:01.751Z,3.22
2022-11-28T05:42:04.884Z,3.27
2022-11-28T05:43:07.998Z,3.26
2022-11-28T05:44:11.008Z,3.25
2022-11-28T05:45:13.883Z,3.27
2022-11-28T05:46:17.082Z,3.28
2022-11-28T05:47:19.985Z,3.27
2022-11-28T05:48:23.573Z,3.26
2022-11-28T05:49:26.586Z,3.24
2022-11-28T05:50:29.492Z,3.23
2022-11-28T05:52:39.907Z,3.19
2022-11-28T05:53:42.942Z,3.18
2022-11-28T05:54:45.790Z,3.16
2022-11-28T05:55:48.747Z,3.22
2022-11-28T05:56:51.857Z,3.29
2022-11-28T05:57:55.177Z,3.24
2022-11-28T05:58:58.479Z,3.24
2022-11-28T06:00:01.991Z,3.25
2022-11-28T06:01:13.045Z,3.26
2022-11-28T06:02:16.060Z,3.24
2022-11-28T06:03:18.933Z,3.22
2022-11-28T06:04:21.693Z,3.23
2022-11-28T06:05:41.712Z,3.25
2022-11-28T06:06:45.910Z,3.24
2022-11-28T06:07:48.675Z,3.29
2022-11-28T06:08:52.685Z,3.24
2022-11-28T06:09:55.480Z,3.24
2022-11-28T06:10:59.704Z,3.21
2022-11-28T06:12:03.300Z,3.22
2022-11-28T06:13:06.637Z,3.18
2022-11-28T06:14:11.743Z,3.18
2022-11-28T06:15:14.963Z,3.24
2022-11-28T06:16:28.612Z,3.36
2022-11-28T06:17:31.984Z,3.35
2022-11-28T06:18:39.333Z,3.52
2022-11-28T06:19:42.928Z,3.54
2022-11-28T06:20:45.995Z,3.36
2022-11-28T06:21:50.756Z,3.24
2022-11-28T06:22:53.574Z,3.18
2022-11-28T06:23:58.339Z,3.16
2022-11-28T06:25:01.151Z,3.15
2022-11-28T06:26:09.359Z,3.13
2022-11-28T06:27:12.302Z,3.18
2022-11-28T06:28:15.276Z,3.19
2022-11-28T06:29:18.483Z,3.24
2022-11-28T06:30:21.364Z,3.24
2022-11-28T06:31:30.666Z,3.23
2022-11-28T06:32:33.439Z,3.28
2022-11-28T06:33:36.189Z,3.23
2022-11-28T06:34:39.117Z,3.35
2022-11-28T06:35:42.088Z,3.32
2022-11-28T06:36:45.525Z,3.26
2022-11-28T06:37:48.354Z,3.36
2022-11-28T06:38:51.970Z,3.26
2022-11-28T06:39:54.850Z,3.25
2022-11-28T06:41:03.980Z,3.20
2022-11-28T06:42:10.649Z,3.16
2022-11-28T06:43:13.580Z,3.18
2022-11-28T06:44:17.313Z,3.12
2022-11-28T06:45:20.031Z,3.13
2022-11-28T06:46:23.815Z,3.13
2022-11-28T06:47:26.656Z,3.15
2022-11-28T06:48:30.101Z,3.14
2022-11-28T06:49:32.992Z,3.14
2022-11-28T06:50:36.137Z,3.23
2022-11-28T06:51:42.269Z,3.30
2022-11-28T06:52:45.318Z,3.22
2022-11-28T06:53:48.778Z,3.18
2022-11-28T06:54:51.603Z,3.18
2022-11-28T06:55:54.384Z,3.25
2022-11-28T06:56:57.279Z,3.23
2022-11-28T06:58:00.213Z,3.17
2022-11-28T06:59:03.363Z,3.17
2022-11-28T07:00:07.051Z,3.18
2022-11-28T07:01:18.507Z,3.22
2022-11-28T07:02:24.444Z,3.31
2022-11-28T07:03:28.970Z,3.32
2022-11-28T07:04:32.221Z,3.26
2022-11-28T07:05:35.078Z,3.25
2022-11-28T07:06:38.554Z,3.30
2022-11-28T07:07:53.046Z,3.39
2022-11-28T07:08:59.186Z,3.30
2022-11-28T07:10:02.041Z,3.31
2022-11-28T07:11:11.921Z,3.30
2022-11-28T07:12:16.910Z,3.28
2022-11-28T07:13:20.089Z,3.23
2022-11-28T07:14:23.140Z,3.23
2022-11-28T07:15:26.966Z,3.42
2022-11-28T07:16:34.021Z,3.38
2022-11-28T07:17:36.849Z,3.33
2022-11-28T07:18:44.735Z,3.42
2022-11-28T07:19:53.393Z,3.37
2022-11-28T07:20:58.154Z,3.33
2022-11-28T07:22:01.090Z,3.27
2022-11-28T07:23:03.944Z,3.36
2022-11-28T07:24:07.396Z,3.34
2022-11-28T07:25:11.215Z,3.35
2022-11-28T07:26:17.704Z,3.34
2022-11-28T07:27:20.616Z,3.31
2022-11-28T07:28:29.993Z,3.29
2022-11-28T07:29:36.776Z,3.27
2022-11-28T07:30:39.696Z,3.29
2022-11-28T07:31:42.932Z,3.28
2022-11-28T07:32:46.500Z,3.25
2022-11-28T07:33:50.805Z,3.29
2022-11-28T07:34:54.238Z,3.27
2022-11-28T07:36:04.681Z,3.33
2022-11-28T07:37:08.269Z,3.35
2022-11-28T07:38:11.838Z,3.36
2022-11-28T07:39:17.806Z,3.32
2022-11-28T07:40:23.248Z,3.28
2022-11-28T07:41:27.320Z,3.27
2022-11-28T07:42:30.469Z,3.28
2022-11-28T07:43:33.596Z,3.29
2022-11-28T07:44:36.419Z,3.29
2022-11-28T07:45:59.572Z,3.28
2022-11-28T07:47:04.055Z,3.31
2022-11-28T07:48:07.146Z,3.33
2022-11-28T07:49:10.164Z,3.47
2022-11-28T07:50:13.052Z,3.40
2022-11-28T07:51:21.080Z,3.41
2022-11-28T07:52:23.976Z,3.44
2022-11-28T07:53:26.887Z,3.44
2022-11-28T07:54:29.721Z,3.36
2022-11-28T07:55:35.495Z,3.34
2022-11-28T07:57:10.862Z,3.44
2022-11-28T07:58:04.112Z,3.46
2022-11-28T07:59:07.720Z,3.51
2022-11-28T08:00:11.119Z,3.66
2022-11-28T08:01:22.072Z,3.48
2022-11-28T08:02:25.357Z,3.45
2022-11-28T08:03:28.821Z,3.39
2022-11-28T08:04:31.693Z,3.41
2022-11-28T08:05:34.698Z,3.35
2022-11-28T08:06:40.837Z,3.32
2022-11-28T08:07:43.884Z,3.36
2022-11-28T08:08:48.545Z,3.39
2022-11-28T08:09:54.823Z,3.31
2022-11-28T08:10:59.762Z,3.28
2022-11-28T08:12:02.728Z,3.30
2022-11-28T08:13:05.479Z,3.28
2022-11-28T08:14:08.373Z,3.25
2022-11-28T08:15:11.635Z,3.34
2022-11-28T08:16:24.788Z,3.27
2022-11-28T08:17:27.693Z,3.39
2022-11-28T08:18:36.672Z,3.37
2022-11-28T08:19:39.552Z,3.30
2022-11-28T08:20:42.563Z,3.26
2022-11-28T08:21:45.783Z,3.22
2022-11-28T08:22:48.735Z,3.19
2022-11-28T08:23:54.017Z,3.34
2022-11-28T08:24:57.536Z,3.31
2022-11-28T08:26:02.430Z,3.30
2022-11-28T08:27:05.535Z,3.27
2022-11-28T08:28:09.120Z,3.28
2022-11-28T08:29:12.245Z,3.27
2022-11-28T08:30:15.595Z,3.29
2022-11-28T08:31:27.312Z,3.29
2022-11-28T08:32:33.753Z,3.31
2022-11-28T08:33:37.397Z,3.29
2022-11-28T08:34:40.793Z,3.34
2022-11-28T08:35:43.649Z,3.40
2022-11-28T08:36:50.416Z,3.41
2022-11-28T08:37:55.594Z,3.35
2022-11-28T08:39:22.230Z,3.33
2022-11-28T08:40:25.424Z,3.29
2022-11-28T08:41:28.305Z,3.27
2022-11-28T08:42:31.282Z,3.38
2022-11-28T08:43:35.350Z,3.51
2022-11-28T08:44:38.335Z,3.39
2022-11-28T08:45:42.833Z,3.36
2022-11-28T08:46:46.197Z,3.39
2022-11-28T08:47:48.916Z,3.38
2022-11-28T08:48:53.108Z,3.38
2022-11-28T08:49:56.445Z,3.34
2022-11-28T08:50:59.319Z,3.33
2022-11-28T08:52:03.789Z,3.38
2022-11-28T08:53:08.051Z,3.49
2022-11-28T08:54:11.072Z,3.41
2022-11-28T08:55:13.944Z,3.41
2022-11-28T08:56:17.378Z,3.37
2022-11-28T08:57:20.409Z,3.36
2022-11-28T08:58:23.550Z,3.35
2022-11-28T08:59:26.442Z,3.37
2022-11-28T09:00:29.213Z,3.42
2022-11-28T09:01:32.369Z,3.42
2022-11-28T09:02:38.695Z,3.40
2022-11-28T09:03:41.544Z,3.40
2022-11-28T09:04:44.495Z,3.54
2022-11-28T09:05:48.482Z,3.51
2022-11-28T09:06:51.668Z,3.46
2022-11-28T09:07:58.255Z,3.47
2022-11-28T09:09:03.169Z,3.42
2022-11-28T09:10:06.796Z,3.47
2022-11-28T09:11:11.501Z,3.53
2022-11-28T09:12:14.625Z,3.52
2022-11-28T09:13:17.845Z,3.52
2022-11-28T09:14:20.672Z,3.56
2022-11-28T09:15:23.569Z,3.55
2022-11-28T09:16:26.569Z,3.64
2022-11-28T09:17:29.460Z,3.61
2022-11-28T09:18:32.976Z,3.60
2022-11-28T09:19:35.851Z,3.62
2022-11-28T09:20:39.795Z,3.64
2022-11-28T09:21:42.681Z,3.69
2022-11-28T09:22:47.465Z,3.80
2022-11-28T09:23:50.437Z,3.79
2022-11-28T09:24:53.420Z,3.78
2022-11-28T09:25:57.096Z,3.73
2022-11-28T09:27:00.295Z,3.68
2022-11-28T09:28:03.527Z,3.76
2022-11-28T09:29:06.705Z,3.81
2022-11-28T09:30:11.999Z,3.75
2022-11-28T09:31:16.670Z,3.73
2022-11-28T09:32:19.756Z,3.75
2022-11-28T09:33:22.519Z,3.76
2022-11-28T09:34:25.450Z,3.77
2022-11-28T09:35:28.333Z,3.82
2022-11-28T09:36:32.712Z,3.81
2022-11-28T09:37:35.936Z,3.79
2022-11-28T09:38:40.438Z,3.74
2022-11-28T09:39:57.435Z,3.77
2022-11-28T09:41:34.216Z,3.81
2022-11-28T09:42:43.874Z,3.74
2022-11-28T09:43:53.493Z,3.71
2022-11-28T09:45:05.497Z,3.67
2022-11-28T09:46:16.236Z,3.64
2022-11-28T09:47:23.481Z,3.63
2022-11-28T09:48:29.824Z,3.61
2022-11-28T09:49:47.570Z,3.62
2022-11-28T09:50:55.856Z,3.65
2022-11-28T09:52:06.974Z,3.69
2022-11-28T09:53:24.755Z,3.79
2022-11-28T09:54:56.641Z,3.77
2022-11-28T09:56:17.632Z,3.71
2022-11-28T09:57:42.536Z,3.66
2022-11-28T09:58:59.124Z,3.74
2022-11-28T10:00:02.421Z,3.69
2022-11-28T10:01:11.460Z,3.65
2022-11-28T10:02:35.131Z,3.71
2022-11-28T10:04:10.281Z,3.66
2022-11-28T10:05:36.435Z,3.64
2022-11-28T10:06:57.477Z,3.73
2022-11-28T10:08:21.467Z,3.84
2022-11-28T10:09:43.160Z,3.71
2022-11-28T10:11:11.709Z,3.80
2022-11-28T10:12:37.470Z,3.78
2022-11-28T10:15:32.844Z,3.70
2022-11-28T10:17:01.988Z,3.65
2022-11-28T10:18:23.480Z,3.65
2022-11-28T10:19:53.851Z,3.64
2022-11-28T10:21:03.132Z,3.68
2022-11-28T10:22:12.456Z,3.76
2022-11-28T10:23:45.916Z,3.74
2022-11-28T10:24:56.571Z,3.87
2022-11-28T10:26:06.258Z,3.78
2022-11-28T10:27:14.036Z,3.82
2022-11-28T10:28:39.185Z,3.75
2022-11-28T10:29:54.642Z,3.77
2022-11-28T10:31:27.700Z,3.73
2022-11-28T10:32:40.972Z,3.80
2022-11-28T10:33:50.565Z,3.81
2022-11-28T10:35:05.911Z,3.68
2022-11-28T10:36:17.472Z,3.68
2022-11-28T10:37:28.864Z,3.68
2022-11-28T10:38:38.647Z,3.70
2022-11-28T10:39:44.933Z,3.79
2022-11-28T10:40:56.381Z,3.71
2022-11-28T10:42:13.976Z,3.67
2022-11-28T10:43:25.785Z,3.74
2022-11-28T10:44:35.595Z,3.75
2022-11-28T10:45:47.309Z,3.67
2022-11-28T10:47:12.401Z,3.65
2022-11-28T10:48:41.053Z,3.65
2022-11-28T10:50:16.340Z,3.74
2022-11-28T10:51:29.079Z,3.82
2022-11-28T10:52:47.610Z,3.75
2022-11-28T10:54:02.833Z,3.77
2022-11-28T10:55:37.352Z,3.91
2022-11-28T10:56:49.830Z,3.78
2022-11-28T10:58:10.796Z,3.76
2022-11-28T10:59:38.253Z,3.80
2022-11-28T11:00:45.777Z,3.82
2022-11-28T11:01:51.470Z,3.90
2022-11-28T11:03:00.613Z,3.91
2022-11-28T11:04:04.230Z,3.92
2022-11-28T11:05:15.842Z,3.97
2022-11-28T11:06:18.620Z,3.95
2022-11-28T11:07:32.152Z,3.90
2022-11-28T11:08:40.293Z,3.85
2022-11-28T11:09:44.357Z,3.84
2022-11-28T11:10:50.959Z,3.82
2022-11-28T11:12:02.885Z,3.77
2022-11-28T11:13:20.793Z,3.82
2022-11-28T11:14:41.973Z,3.92
2022-11-28T11:15:46.553Z,4.01
2022-11-28T11:16:56.735Z,3.98
2022-11-28T11:18:29.152Z,4.07
2022-11-28T11:19:41.095Z,4.01
2022-11-28T11:20:44.284Z,3.90
2022-11-28T11:22:04.198Z,3.84
2022-11-28T11:23:17.904Z,3.81
2022-11-28T11:24:21.353Z,3.75
2022-11-28T11:25:32.994Z,3.75
2022-11-28T11:26:39.372Z,3.77
2022-11-28T11:27:55.483Z,3.80
2022-11-28T11:28:58.481Z,3.81
2022-11-28T11:30:15.925Z,3.86
2022-11-28T11:31:44.456Z,3.87
2022-11-28T11:32:51.351Z,3.91
2022-11-28T11:34:04.691Z,3.83
2022-11-28T11:35:23.127Z,3.83
2022-11-28T11:36:31.604Z,3.77
2022-11-28T11:37:39.338Z,3.72
2022-11-28T11:38:42.633Z,3.71
2022-11-28T11:39:56.756Z,3.70
2022-11-28T11:41:21.924Z,3.70
2022-11-28T11:42:32.231Z,3.70
2022-11-28T11:43:38.072Z,3.68
2022-11-28T11:44:41.207Z,3.67
2022-11-28T11:45:47.236Z,3.68
2022-11-28T11:47:03.343Z,3.65
2022-11-28T11:48:06.359Z,3.62
2022-11-28T11:49:39.666Z,3.61
2022-11-28T11:50:54.258Z,3.65
2022-11-28T11:51:59.072Z,3.83
2022-11-28T11:53:07.096Z,3.76
2022-11-28T11:54:12.957Z,3.68
2022-11-28T11:55:18.698Z,3.64
2022-11-28T11:56:21.782Z,3.62
2022-11-28T11:57:33.600Z,3.63
2022-11-28T11:58:51.968Z,3.68
2022-11-28T12:00:09.985Z,3.69
2022-11-28T12:01:15.838Z,3.82
2022-11-28T12:02:33.098Z,3.89
2022-11-28T12:03:57.305Z,3.87
2022-11-28T12:05:14.358Z,3.83
2022-11-28T12:06:41.467Z,3.89
2022-11-28T12:08:25.822Z,3.77
2022-11-28T12:09:42.393Z,3.63
2022-11-28T12:11:04.253Z,3.58
2022-11-28T12:12:30.093Z,3.59
2022-11-28T12:13:34.102Z,3.63
2022-11-28T12:14:40.992Z,3.69
2022-11-28T12:15:53.859Z,3.77
2022-11-28T12:17:47.275Z,3.69
2022-11-28T12:19:18.907Z,3.74
2022-11-28T12:20:53.885Z,3.56
2022-11-28T12:22:34.218Z,3.50
2022-11-28T12:23:54.765Z,3.47
2022-11-28T12:25:30.409Z,3.54
2022-11-28T12:27:18.302Z,3.56
2022-11-28T12:28:59.375Z,3.61
2022-11-28T12:30:20.359Z,3.54
2022-11-28T12:31:23.306Z,3.55
2022-11-28T12:32:34.785Z,3.60
2022-11-28T12:33:44.867Z,3.58
2022-11-28T12:35:12.126Z,3.67
2022-11-28T12:36:38.547Z,3.65
2022-11-28T12:38:10.765Z,3.61
2022-11-28T12:39:17.846Z,3.54
2022-11-28T12:40:38.683Z,3.52
2022-11-28T12:42:11.646Z,3.66
2022-11-28T12:43:27.372Z,3.63
2022-11-28T12:45:05.970Z,3.65
2022-11-28T12:46:22.081Z,3.70
2022-11-28T12:47:39.838Z,3.79
2022-11-28T12:49:03.609Z,3.85
2022-11-28T12:50:30.738Z,3.71
2022-11-28T12:51:37.191Z,3.77
2022-11-28T12:52:52.552Z,3.78
2022-11-28T12:54:10.733Z,3.74
2022-11-28T12:55:28.656Z,3.67
2022-11-28T12:56:55.268Z,3.70
2022-11-28T12:58:06.859Z,3.64
2022-11-28T12:59:35.397Z,3.61
2022-11-28T13:00:50.579Z,3.73
2022-11-28T13:02:16.843Z,3.81
2022-11-28T13:03:31.743Z,3.79
2022-11-28T13:04:34.540Z,3.72
2022-11-28T13:06:14.869Z,3.71
2022-11-28T13:07:36.241Z,3.75
2022-11-28T13:09:05.613Z,3.75
2022-11-28T13:10:23.345Z,3.69
2022-11-28T13:11:31.321Z,3.72
2022-11-28T13:12:52.544Z,3.79
2022-11-28T13:14:03.055Z,3.89
2022-11-28T13:15:44.086Z,3.81
2022-11-28T13:16:50.819Z,3.74
2022-11-28T13:19:50.854Z,3.77
2022-11-28T13:21:07.141Z,3.73
2022-11-28T13:22:23.739Z,3.77
2022-11-28T13:23:48.461Z,3.79
2022-11-28T13:25:14.677Z,3.82
2022-11-28T13:26:36.328Z,3.90
2022-11-28T13:28:06.359Z,3.95
2022-11-28T13:29:28.060Z,3.94
2022-11-28T13:30:41.494Z,3.97
2022-11-28T13:32:01.932Z,3.91
2022-11-28T13:33:27.726Z,3.86
2022-11-28T13:34:31.902Z,3.86
2022-11-28T13:35:35.593Z,3.85
2022-11-28T13:38:37.922Z,3.85
2022-11-28T13:39:52.022Z,3.88
2022-11-28T13:41:17.918Z,3.91
2022-11-28T13:43:03.869Z,3.85
2022-11-28T13:44:21.115Z,3.76
2022-11-28T13:46:52.508Z,3.73
2022-11-28T13:47:55.732Z,3.73
2022-11-28T13:49:15.205Z,3.74
2022-11-28T13:50:30.569Z,3.74
2022-11-28T13:51:34.497Z,3.77
2022-11-28T13:52:46.857Z,3.78
2022-11-28T13:54:19.433Z,3.93
2022-11-28T13:56:04.585Z,3.88
2022-11-28T13:57:21.744Z,3.86
2022-11-28T13:59:01.941Z,3.84
2022-11-28T14:00:07.399Z,3.79
2022-11-28T14:01:31.218Z,3.77
2022-11-28T14:02:46.130Z,3.79
2022-11-28T14:03:57.945Z,3.75
2022-11-28T14:05:02.057Z,3.75
2022-11-28T14:06:07.346Z,3.73
2022-11-28T14:07:25.836Z,3.71
2022-11-28T14:08:37.274Z,3.76
2022-11-28T14:09:56.371Z,3.79
2022-11-28T14:11:14.172Z,3.75
2022-11-28T14:12:34.427Z,3.75
2022-11-28T14:13:46.176Z,3.75
2022-11-28T14:14:54.484Z,3.76
2022-11-28T14:16:19.730Z,3.74
2022-11-28T14:17:47.486Z,3.71
2022-11-28T14:19:00.596Z,3.69
2022-11-28T14:20:32.742Z,3.82
2022-11-28T14:21:38.601Z,3.78
2022-11-28T14:23:08.173Z,3.68
2022-11-28T14:24:42.293Z,3.61
2022-11-28T14:25:49.399Z,3.61
2022-11-28T14:27:02.832Z,3.59
2022-11-28T14:28:17.018Z,3.63
2022-11-28T14:29:35.503Z,3.61
2022-11-28T14:30:45.278Z,3.63
2022-11-28T14:32:13.700Z,3.55
2022-11-28T14:33:15.430Z,3.55
2022-11-28T14:34:40.591Z,3.52
2022-11-28T14:35:58.780Z,3.52
2022-11-28T14:37:19.809Z,3.46
2022-11-28T14:38:32.349Z,3.43
2022-11-28T14:39:35.509Z,3.55
2022-11-28T14:40:53.518Z,3.47
2022-11-28T14:42:10.297Z,3.42
2022-11-28T14:43:43.170Z,3.50
2022-11-28T14:44:57.429Z,3.52
2022-11-28T14:46:30.968Z,3.57
2022-11-28T14:47:42.941Z,3.52
2022-11-28T14:48:58.587Z,3.42
2022-11-28T14:50:08.096Z,3.37
2022-11-28T14:51:11.177Z,3.36
2022-11-28T14:53:45.243Z,3.28
2022-11-28T14:54:50.103Z,3.23
2022-11-28T14:55:52.938Z,3.31
2022-11-28T14:56:59.840Z,3.24
2022-11-28T14:58:05.575Z,3.35
2022-11-28T14:59:12.394Z,3.23
2022-11-28T15:00:19.040Z,3.14
2022-11-28T15:01:59.920Z,3.09
2022-11-28T15:03:24.981Z,3.16
2022-11-28T15:04:47.911Z,3.14
2022-11-28T15:06:01.889Z,3.06
2022-11-28T15:07:23.743Z,3.02
2022-11-28T15:08:55.483Z,2.96
2022-11-28T15:10:11.960Z,2.99
2022-11-28T15:11:15.000Z,2.91
2022-11-28T15:12:49.130Z,3.01
2022-11-28T15:14:01.514Z,3.07
2022-11-28T15:15:08.218Z,2.97
2022-11-28T15:16:14.401Z,2.91
2022-11-28T15:17:21.883Z,2.84
2022-11-28T15:18:26.660Z,2.80
2022-11-28T15:19:50.251Z,2.81
2022-11-28T15:21:01.442Z,2.92
2022-11-28T15:22:04.866Z,2.84
2022-11-28T15:23:26.380Z,2.92
2022-11-28T15:24:38.544Z,2.77
2022-11-28T15:25:44.698Z,2.72
2022-11-28T15:26:57.354Z,2.70
2022-11-28T15:28:14.744Z,2.65
2022-11-28T15:29:20.673Z,2.91
2022-11-28T15:30:26.920Z,2.93
2022-11-28T15:31:30.720Z,2.83
2022-11-28T15:32:34.876Z,2.70
2022-11-28T15:33:40.170Z,2.61
2022-11-28T15:34:43.333Z,2.65
2022-11-28T15:36:12.482Z,2.64
2022-11-28T15:37:21.773Z,2.67
2022-11-28T15:38:25.856Z,2.63
2022-11-28T15:39:40.469Z,2.66
2022-11-28T15:40:50.457Z,2.62
2022-11-28T15:41:53.557Z,2.66
2022-11-28T15:42:56.415Z,2.57
2022-11-28T15:44:02.713Z,2.54
2022-11-28T15:45:08.061Z,2.47
2022-11-28T15:46:20.210Z,2.42
2022-11-28T15:47:23.967Z,2.44
2022-11-28T15:48:28.253Z,2.45
2022-11-28T15:49:35.682Z,2.50
2022-11-28T15:50:49.709Z,2.66